sensor_id;sensor_type;location;lat;lon;timestamp;P1;durP1;ratioP1;P2;durP2;ratioP2
3891;SDS011;1961;48.194;16.370;2022-12-08T00:02:15;46.45;;;8.30;;
3891;SDS011;1961;48.194;16.370;2022-12-08T00:04:41;47.35;;;8.63;;
3891;SDS011;1961;48.194;16.370;2022-12-08T00:07:26;46.17;;;7.95;;
3891;SDS011;1961;48.194;16.370;2022-12-08T00:10:11;46.80;;;8.60;;
3891;SDS011;1961;48.194;16.370;2022-12-08T00:12:38;47.20;;;9.20;;
3891;SDS011;1961;48.194;16.370;2022-12-08T00:15:04;46.50;;;8.75;;
3891;SDS011;1961;48.194;16.370;2022-12-08T00:17:30;44.75;;;8.60;;
3891;SDS011;1961;48.194;16.370;2022-12-08T00:19:56;46.60;;;8.82;;
3891;SDS011;1961;48.194;16.370;2022-12-08T00:22:23;46.75;;;8.20;;
3891;SDS011;1961;48.194;16.370;2022-12-08T00:24:49;45.53;;;8.82;;
3891;SDS011;1961;48.194;16.370;2022-12-08T00:27:15;46.60;;;7.95;;
3891;SDS011;1961;48.194;16.370;2022-12-08T00:29:42;47.17;;;9.00;;
3891;SDS011;1961;48.194;16.370;2022-12-08T00:32:09;45.53;;;8.63;;
3891;SDS011;1961;48.194;16.370;2022-12-08T00:34:35;45.35;;;8.20;;
3891;SDS011;1961;48.194;16.370;2022-12-08T00:37:02;48.83;;;8.52;;
3891;SDS011;1961;48.194;16.370;2022-12-08T00:39:28;47.05;;;8.27;;
3891;SDS011;1961;48.194;16.370;2022-12-08T00:41:54;46.13;;;8.45;;
3891;SDS011;1961;48.194;16.370;2022-12-08T00:44:39;46.40;;;8.90;;
3891;SDS011;1961;48.194;16.370;2022-12-08T00:47:06;47.70;;;10.43;;
3891;SDS011;1961;48.194;16.370;2022-12-08T00:49:32;46.65;;;9.45;;
3891;SDS011;1961;48.194;16.370;2022-12-08T00:51:58;46.35;;;8.50;;
3891;SDS011;1961;48.194;16.370;2022-12-08T00:54:25;46.22;;;8.45;;
3891;SDS011;1961;48.194;16.370;2022-12-08T00:56:51;46.33;;;8.68;;
3891;SDS011;1961;48.194;16.370;2022-12-08T00:59:17;44.60;;;7.57;;
3891;SDS011;1961;48.194;16.370;2022-12-08T01:01:44;44.95;;;7.75;;
3891;SDS011;1961;48.194;16.370;2022-12-08T01:04:11;45.85;;;8.63;;
3891;SDS011;1961;48.194;16.370;2022-12-08T01:06:39;47.00;;;8.45;;
3891;SDS011;1961;48.194;16.370;2022-12-08T01:09:06;47.05;;;8.93;;
3891;SDS011;1961;48.194;16.370;2022-12-08T01:11:33;46.20;;;8.32;;
3891;SDS011;1961;48.194;16.370;2022-12-08T01:13:59;46.45;;;8.85;;
3891;SDS011;1961;48.194;16.370;2022-12-08T01:16:29;45.53;;;7.97;;
3891;SDS011;1961;48.194;16.370;2022-12-08T01:18:57;45.28;;;8.55;;
3891;SDS011;1961;48.194;16.370;2022-12-08T01:21:23;47.55;;;8.93;;
3891;SDS011;1961;48.194;16.370;2022-12-08T01:23:50;45.13;;;8.30;;
3891;SDS011;1961;48.194;16.370;2022-12-08T01:26:17;47.53;;;9.68;;
3891;SDS011;1961;48.194;16.370;2022-12-08T01:28:43;49.35;;;8.70;;
3891;SDS011;1961;48.194;16.370;2022-12-08T01:31:17;46.10;;;8.60;;
3891;SDS011;1961;48.194;16.370;2022-12-08T01:33:44;46.20;;;8.68;;
3891;SDS011;1961;48.194;16.370;2022-12-08T01:36:21;44.63;;;8.43;;
3891;SDS011;1961;48.194;16.370;2022-12-08T01:38:48;45.20;;;7.70;;
3891;SDS011;1961;48.194;16.370;2022-12-08T01:41:15;53.10;;;9.38;;
3891;SDS011;1961;48.194;16.370;2022-12-08T01:46:27;44.45;;;8.50;;
3891;SDS011;1961;48.194;16.370;2022-12-08T01:49:06;43.63;;;7.65;;
3891;SDS011;1961;48.194;16.370;2022-12-08T01:51:34;46.30;;;7.75;;
3891;SDS011;1961;48.194;16.370;2022-12-08T01:54:04;44.80;;;7.82;;
3891;SDS011;1961;48.194;16.370;2022-12-08T01:56:35;46.28;;;8.05;;
3891;SDS011;1961;48.194;16.370;2022-12-08T01:59:03;46.90;;;7.68;;
3891;SDS011;1961;48.194;16.370;2022-12-08T02:01:30;45.53;;;7.85;;
3891;SDS011;1961;48.194;16.370;2022-12-08T02:03:57;45.28;;;7.22;;
3891;SDS011;1961;48.194;16.370;2022-12-08T02:06:25;45.63;;;8.35;;
3891;SDS011;1961;48.194;16.370;2022-12-08T02:08:52;45.85;;;7.90;;
3891;SDS011;1961;48.194;16.370;2022-12-08T02:11:21;44.90;;;7.95;;
3891;SDS011;1961;48.194;16.370;2022-12-08T02:13:47;44.25;;;7.25;;
3891;SDS011;1961;48.194;16.370;2022-12-08T02:23:55;44.85;;;8.25;;
3891;SDS011;1961;48.194;16.370;2022-12-08T02:41:42;45.50;;;7.65;;
3891;SDS011;1961;48.194;16.370;2022-12-08T02:44:19;43.60;;;6.80;;
3891;SDS011;1961;48.194;16.370;2022-12-08T02:46:49;44.35;;;8.43;;
3891;SDS011;1961;48.194;16.370;2022-12-08T02:49:16;46.75;;;8.20;;
3891;SDS011;1961;48.194;16.370;2022-12-08T02:51:42;47.08;;;9.35;;
3891;SDS011;1961;48.194;16.370;2022-12-08T02:54:08;50.70;;;9.02;;
3891;SDS011;1961;48.194;16.370;2022-12-08T02:56:49;46.45;;;9.60;;
3891;SDS011;1961;48.194;16.370;2022-12-08T02:59:24;48.17;;;8.93;;
3891;SDS011;1961;48.194;16.370;2022-12-08T03:04:57;45.80;;;8.38;;
3891;SDS011;1961;48.194;16.370;2022-12-08T03:07:19;45.97;;;7.90;;
3891;SDS011;1961;48.194;16.370;2022-12-08T03:09:49;47.92;;;9.30;;
3891;SDS011;1961;48.194;16.370;2022-12-08T03:12:23;46.03;;;9.75;;
3891;SDS011;1961;48.194;16.370;2022-12-08T03:14:54;46.65;;;7.97;;
3891;SDS011;1961;48.194;16.370;2022-12-08T03:17:22;45.45;;;8.25;;
3891;SDS011;1961;48.194;16.370;2022-12-08T03:19:50;47.72;;;8.75;;
3891;SDS011;1961;48.194;16.370;2022-12-08T03:22:19;47.85;;;8.80;;
3891;SDS011;1961;48.194;16.370;2022-12-08T03:24:47;46.10;;;8.30;;
3891;SDS011;1961;48.194;16.370;2022-12-08T03:27:14;48.22;;;7.97;;
3891;SDS011;1961;48.194;16.370;2022-12-08T03:29:43;44.08;;;7.50;;
3891;SDS011;1961;48.194;16.370;2022-12-08T03:34:36;47.22;;;8.27;;
3891;SDS011;1961;48.194;16.370;2022-12-08T03:37:04;42.67;;;7.50;;
3891;SDS011;1961;48.194;16.370;2022-12-08T03:39:30;45.13;;;7.93;;
3891;SDS011;1961;48.194;16.370;2022-12-08T03:41:58;45.47;;;8.68;;
3891;SDS011;1961;48.194;16.370;2022-12-08T03:44:24;45.17;;;7.97;;
3891;SDS011;1961;48.194;16.370;2022-12-08T03:46:50;46.60;;;9.40;;
3891;SDS011;1961;48.194;16.370;2022-12-08T03:49:16;44.20;;;7.93;;
3891;SDS011;1961;48.194;16.370;2022-12-08T03:51:42;50.13;;;8.23;;
3891;SDS011;1961;48.194;16.370;2022-12-08T03:54:08;46.00;;;8.75;;
3891;SDS011;1961;48.194;16.370;2022-12-08T03:56:36;46.83;;;8.40;;
3891;SDS011;1961;48.194;16.370;2022-12-08T03:59:03;45.55;;;8.68;;
3891;SDS011;1961;48.194;16.370;2022-12-08T04:01:29;44.00;;;8.32;;
3891;SDS011;1961;48.194;16.370;2022-12-08T04:03:56;44.13;;;8.18;;
3891;SDS011;1961;48.194;16.370;2022-12-08T04:06:22;45.20;;;8.05;;
3891;SDS011;1961;48.194;16.370;2022-12-08T04:08:49;43.80;;;7.88;;
3891;SDS011;1961;48.194;16.370;2022-12-08T04:11:16;45.03;;;9.13;;
3891;SDS011;1961;48.194;16.370;2022-12-08T04:13:42;46.08;;;8.82;;
3891;SDS011;1961;48.194;16.370;2022-12-08T04:16:13;46.10;;;8.85;;
3891;SDS011;1961;48.194;16.370;2022-12-08T04:18:39;45.60;;;8.43;;
3891;SDS011;1961;48.194;16.370;2022-12-08T04:21:07;45.78;;;8.10;;
3891;SDS011;1961;48.194;16.370;2022-12-08T04:23:33;48.08;;;8.57;;
3891;SDS011;1961;48.194;16.370;2022-12-08T04:25:59;46.90;;;9.02;;
3891;SDS011;1961;48.194;16.370;2022-12-08T04:28:25;45.80;;;8.52;;
3891;SDS011;1961;48.194;16.370;2022-12-08T04:30:53;48.03;;;8.20;;
3891;SDS011;1961;48.194;16.370;2022-12-08T04:33:20;46.00;;;8.65;;
3891;SDS011;1961;48.194;16.370;2022-12-08T04:35:46;45.15;;;9.02;;
3891;SDS011;1961;48.194;16.370;2022-12-08T04:38:12;45.17;;;8.73;;
3891;SDS011;1961;48.194;16.370;2022-12-08T04:40:39;47.88;;;9.00;;
3891;SDS011;1961;48.194;16.370;2022-12-08T04:43:05;44.17;;;8.20;;
3891;SDS011;1961;48.194;16.370;2022-12-08T04:45:31;45.33;;;8.40;;
3891;SDS011;1961;48.194;16.370;2022-12-08T04:47:58;45.72;;;8.73;;
3891;SDS011;1961;48.194;16.370;2022-12-08T04:50:25;45.70;;;7.75;;
3891;SDS011;1961;48.194;16.370;2022-12-08T04:52:51;45.22;;;7.60;;
3891;SDS011;1961;48.194;16.370;2022-12-08T04:55:18;43.92;;;7.75;;
3891;SDS011;1961;48.194;16.370;2022-12-08T04:57:44;47.78;;;8.57;;
3891;SDS011;1961;48.194;16.370;2022-12-08T05:00:11;44.63;;;7.72;;
3891;SDS011;1961;48.194;16.370;2022-12-08T05:02:38;45.10;;;8.93;;
3891;SDS011;1961;48.194;16.370;2022-12-08T05:05:06;45.40;;;8.27;;
3891;SDS011;1961;48.194;16.370;2022-12-08T05:07:32;43.85;;;7.40;;
3891;SDS011;1961;48.194;16.370;2022-12-08T05:09:58;46.47;;;8.80;;
3891;SDS011;1961;48.194;16.370;2022-12-08T05:12:25;46.50;;;8.95;;
3891;SDS011;1961;48.194;16.370;2022-12-08T05:14:52;44.80;;;7.82;;
3891;SDS011;1961;48.194;16.370;2022-12-08T05:17:18;43.60;;;8.20;;
3891;SDS011;1961;48.194;16.370;2022-12-08T05:19:45;46.03;;;8.50;;
3891;SDS011;1961;48.194;16.370;2022-12-08T05:22:11;45.35;;;8.43;;
3891;SDS011;1961;48.194;16.370;2022-12-08T05:24:38;46.45;;;8.77;;
3891;SDS011;1961;48.194;16.370;2022-12-08T05:27:05;46.60;;;9.38;;
3891;SDS011;1961;48.194;16.370;2022-12-08T05:29:31;45.92;;;8.50;;
3891;SDS011;1961;48.194;16.370;2022-12-08T05:31:57;45.22;;;8.55;;
3891;SDS011;1961;48.194;16.370;2022-12-08T05:34:23;46.50;;;8.80;;
3891;SDS011;1961;48.194;16.370;2022-12-08T05:36:52;46.20;;;8.38;;
3891;SDS011;1961;48.194;16.370;2022-12-08T05:39:19;46.13;;;9.10;;
3891;SDS011;1961;48.194;16.370;2022-12-08T05:41:45;46.60;;;9.15;;
3891;SDS011;1961;48.194;16.370;2022-12-08T05:44:11;47.13;;;9.85;;
3891;SDS011;1961;48.194;16.370;2022-12-08T05:46:37;45.60;;;9.02;;
3891;SDS011;1961;48.194;16.370;2022-12-08T05:49:03;48.25;;;10.13;;
3891;SDS011;1961;48.194;16.370;2022-12-08T05:51:29;47.63;;;10.35;;
3891;SDS011;1961;48.194;16.370;2022-12-08T05:53:56;47.55;;;9.68;;
3891;SDS011;1961;48.194;16.370;2022-12-08T05:56:22;49.13;;;9.70;;
3891;SDS011;1961;48.194;16.370;2022-12-08T05:58:48;44.70;;;8.95;;
3891;SDS011;1961;48.194;16.370;2022-12-08T06:01:19;47.67;;;9.30;;
3891;SDS011;1961;48.194;16.370;2022-12-08T06:03:45;46.88;;;9.65;;
3891;SDS011;1961;48.194;16.370;2022-12-08T06:06:11;47.47;;;10.20;;
3891;SDS011;1961;48.194;16.370;2022-12-08T06:08:37;47.50;;;9.85;;
3891;SDS011;1961;48.194;16.370;2022-12-08T06:11:03;47.70;;;9.55;;
3891;SDS011;1961;48.194;16.370;2022-12-08T06:13:30;47.10;;;10.15;;
3891;SDS011;1961;48.194;16.370;2022-12-08T06:16:02;49.78;;;10.60;;
3891;SDS011;1961;48.194;16.370;2022-12-08T06:18:28;49.80;;;9.73;;
3891;SDS011;1961;48.194;16.370;2022-12-08T06:21:03;47.45;;;10.45;;
3891;SDS011;1961;48.194;16.370;2022-12-08T06:23:30;48.47;;;11.55;;
3891;SDS011;1961;48.194;16.370;2022-12-08T06:25:59;45.40;;;9.88;;
3891;SDS011;1961;48.194;16.370;2022-12-08T06:28:26;47.65;;;10.30;;
3891;SDS011;1961;48.194;16.370;2022-12-08T06:30:53;46.35;;;10.15;;
3891;SDS011;1961;48.194;16.370;2022-12-08T06:33:19;47.88;;;10.77;;
3891;SDS011;1961;48.194;16.370;2022-12-08T06:35:45;48.17;;;11.45;;
3891;SDS011;1961;48.194;16.370;2022-12-08T06:38:11;47.80;;;10.50;;
3891;SDS011;1961;48.194;16.370;2022-12-08T06:40:37;48.10;;;10.02;;
3891;SDS011;1961;48.194;16.370;2022-12-08T06:43:03;47.53;;;10.70;;
3891;SDS011;1961;48.194;16.370;2022-12-08T06:45:30;48.10;;;11.02;;
3891;SDS011;1961;48.194;16.370;2022-12-08T06:47:56;47.20;;;10.25;;
3891;SDS011;1961;48.194;16.370;2022-12-08T06:50:22;49.60;;;11.50;;
3891;SDS011;1961;48.194;16.370;2022-12-08T06:52:48;48.45;;;11.23;;
3891;SDS011;1961;48.194;16.370;2022-12-08T06:55:14;49.70;;;12.15;;
3891;SDS011;1961;48.194;16.370;2022-12-08T06:57:41;48.35;;;10.68;;
3891;SDS011;1961;48.194;16.370;2022-12-08T07:00:07;47.92;;;11.52;;
3891;SDS011;1961;48.194;16.370;2022-12-08T07:02:34;51.80;;;11.70;;
3891;SDS011;1961;48.194;16.370;2022-12-08T07:05:00;50.15;;;11.95;;
3891;SDS011;1961;48.194;16.370;2022-12-08T07:07:26;49.08;;;11.65;;
3891;SDS011;1961;48.194;16.370;2022-12-08T07:09:52;50.20;;;11.00;;
3891;SDS011;1961;48.194;16.370;2022-12-08T07:12:18;50.00;;;10.50;;
3891;SDS011;1961;48.194;16.370;2022-12-08T07:14:44;48.33;;;10.88;;
3891;SDS011;1961;48.194;16.370;2022-12-08T07:17:10;48.45;;;11.75;;
3891;SDS011;1961;48.194;16.370;2022-12-08T07:19:37;49.35;;;12.18;;
3891;SDS011;1961;48.194;16.370;2022-12-08T07:22:04;47.67;;;11.90;;
3891;SDS011;1961;48.194;16.370;2022-12-08T07:24:30;50.10;;;11.23;;
3891;SDS011;1961;48.194;16.370;2022-12-08T07:26:57;51.00;;;12.70;;
3891;SDS011;1961;48.194;16.370;2022-12-08T07:29:24;51.38;;;13.38;;
3891;SDS011;1961;48.194;16.370;2022-12-08T07:31:50;54.60;;;12.23;;
3891;SDS011;1961;48.194;16.370;2022-12-08T07:34:16;49.70;;;12.20;;
3891;SDS011;1961;48.194;16.370;2022-12-08T07:36:42;52.00;;;12.80;;
3891;SDS011;1961;48.194;16.370;2022-12-08T07:39:08;54.17;;;14.63;;
3891;SDS011;1961;48.194;16.370;2022-12-08T07:41:34;49.67;;;12.57;;
3891;SDS011;1961;48.194;16.370;2022-12-08T07:44:01;50.10;;;12.82;;
3891;SDS011;1961;48.194;16.370;2022-12-08T07:46:28;52.15;;;14.38;;
3891;SDS011;1961;48.194;16.370;2022-12-08T07:48:54;51.95;;;12.75;;
3891;SDS011;1961;48.194;16.370;2022-12-08T07:51:21;50.05;;;11.73;;
3891;SDS011;1961;48.194;16.370;2022-12-08T07:53:49;51.08;;;11.35;;
3891;SDS011;1961;48.194;16.370;2022-12-08T07:56:15;50.30;;;11.40;;
3891;SDS011;1961;48.194;16.370;2022-12-08T07:58:41;49.38;;;12.60;;
3891;SDS011;1961;48.194;16.370;2022-12-08T08:01:26;49.78;;;11.60;;
3891;SDS011;1961;48.194;16.370;2022-12-08T08:03:54;50.63;;;12.32;;
3891;SDS011;1961;48.194;16.370;2022-12-08T08:06:20;50.90;;;12.13;;
3891;SDS011;1961;48.194;16.370;2022-12-08T08:08:47;48.65;;;10.95;;
3891;SDS011;1961;48.194;16.370;2022-12-08T08:11:13;47.60;;;11.48;;
3891;SDS011;1961;48.194;16.370;2022-12-08T08:13:39;51.70;;;13.40;;
3891;SDS011;1961;48.194;16.370;2022-12-08T08:16:06;48.30;;;10.43;;
3891;SDS011;1961;48.194;16.370;2022-12-08T08:18:33;47.03;;;10.85;;
3891;SDS011;1961;48.194;16.370;2022-12-08T08:20:59;49.95;;;10.93;;
3891;SDS011;1961;48.194;16.370;2022-12-08T08:23:26;49.35;;;11.30;;
3891;SDS011;1961;48.194;16.370;2022-12-08T08:25:52;47.72;;;10.65;;
3891;SDS011;1961;48.194;16.370;2022-12-08T08:28:19;48.88;;;11.35;;
3891;SDS011;1961;48.194;16.370;2022-12-08T08:30:45;50.00;;;11.95;;
3891;SDS011;1961;48.194;16.370;2022-12-08T08:33:12;51.63;;;10.32;;
3891;SDS011;1961;48.194;16.370;2022-12-08T08:35:38;48.17;;;10.65;;
3891;SDS011;1961;48.194;16.370;2022-12-08T08:38:06;49.63;;;10.90;;
3891;SDS011;1961;48.194;16.370;2022-12-08T08:40:32;48.63;;;10.60;;
3891;SDS011;1961;48.194;16.370;2022-12-08T08:42:59;49.67;;;10.77;;
3891;SDS011;1961;48.194;16.370;2022-12-08T08:45:26;49.22;;;10.50;;
3891;SDS011;1961;48.194;16.370;2022-12-08T08:47:52;46.17;;;9.70;;
3891;SDS011;1961;48.194;16.370;2022-12-08T08:50:18;47.45;;;11.40;;
3891;SDS011;1961;48.194;16.370;2022-12-08T08:52:45;52.53;;;10.45;;
3891;SDS011;1961;48.194;16.370;2022-12-08T08:55:11;46.90;;;10.50;;
3891;SDS011;1961;48.194;16.370;2022-12-08T08:57:40;88.75;;;37.80;;
3891;SDS011;1961;48.194;16.370;2022-12-08T09:00:06;56.40;;;12.52;;
3891;SDS011;1961;48.194;16.370;2022-12-08T09:02:34;50.28;;;10.90;;
3891;SDS011;1961;48.194;16.370;2022-12-08T09:05:01;48.15;;;10.63;;
3891;SDS011;1961;48.194;16.370;2022-12-08T09:07:27;47.17;;;11.15;;
3891;SDS011;1961;48.194;16.370;2022-12-08T09:09:53;50.03;;;11.55;;
3891;SDS011;1961;48.194;16.370;2022-12-08T09:12:19;51.03;;;11.85;;
3891;SDS011;1961;48.194;16.370;2022-12-08T09:14:46;61.15;;;19.23;;
3891;SDS011;1961;48.194;16.370;2022-12-08T09:17:12;67.10;;;19.77;;
3891;SDS011;1961;48.194;16.370;2022-12-08T09:19:38;51.10;;;11.07;;
3891;SDS011;1961;48.194;16.370;2022-12-08T09:22:05;51.15;;;11.45;;
3891;SDS011;1961;48.194;16.370;2022-12-08T09:24:31;48.90;;;11.30;;
3891;SDS011;1961;48.194;16.370;2022-12-08T09:26:57;48.88;;;11.20;;
3891;SDS011;1961;48.194;16.370;2022-12-08T09:29:23;49.50;;;11.73;;
3891;SDS011;1961;48.194;16.370;2022-12-08T09:31:50;51.75;;;11.68;;
3891;SDS011;1961;48.194;16.370;2022-12-08T09:34:16;51.03;;;10.75;;
3891;SDS011;1961;48.194;16.370;2022-12-08T09:36:42;49.75;;;11.55;;
3891;SDS011;1961;48.194;16.370;2022-12-08T09:39:08;47.13;;;10.38;;
3891;SDS011;1961;48.194;16.370;2022-12-08T09:46:38;52.40;;;13.85;;
3891;SDS011;1961;48.194;16.370;2022-12-08T09:49:05;50.92;;;13.05;;
3891;SDS011;1961;48.194;16.370;2022-12-08T09:51:38;50.30;;;10.32;;
3891;SDS011;1961;48.194;16.370;2022-12-08T09:54:06;47.13;;;9.98;;
3891;SDS011;1961;48.194;16.370;2022-12-08T09:56:34;48.85;;;10.00;;
3891;SDS011;1961;48.194;16.370;2022-12-08T09:59:02;49.70;;;10.18;;
3891;SDS011;1961;48.194;16.370;2022-12-08T10:01:30;49.92;;;10.63;;
3891;SDS011;1961;48.194;16.370;2022-12-08T10:03:57;51.03;;;10.95;;
3891;SDS011;1961;48.194;16.370;2022-12-08T10:06:26;48.97;;;10.77;;
3891;SDS011;1961;48.194;16.370;2022-12-08T10:11:21;48.60;;;10.60;;
3891;SDS011;1961;48.194;16.370;2022-12-08T10:16:45;48.55;;;10.75;;
3891;SDS011;1961;48.194;16.370;2022-12-08T10:19:15;54.45;;;11.65;;
3891;SDS011;1961;48.194;16.370;2022-12-08T10:21:42;49.05;;;10.30;;
3891;SDS011;1961;48.194;16.370;2022-12-08T10:24:15;50.60;;;11.02;;
3891;SDS011;1961;48.194;16.370;2022-12-08T10:26:43;52.92;;;12.75;;
3891;SDS011;1961;48.194;16.370;2022-12-08T10:29:12;57.55;;;11.82;;
3891;SDS011;1961;48.194;16.370;2022-12-08T10:31:38;50.38;;;11.50;;
3891;SDS011;1961;48.194;16.370;2022-12-08T10:34:18;50.58;;;12.40;;
3891;SDS011;1961;48.194;16.370;2022-12-08T10:36:45;47.65;;;10.80;;
3891;SDS011;1961;48.194;16.370;2022-12-08T10:42:00;52.22;;;12.73;;
3891;SDS011;1961;48.194;16.370;2022-12-08T10:44:26;56.50;;;14.20;;
3891;SDS011;1961;48.194;16.370;2022-12-08T10:46:53;52.40;;;12.85;;
3891;SDS011;1961;48.194;16.370;2022-12-08T10:49:26;53.08;;;14.57;;
3891;SDS011;1961;48.194;16.370;2022-12-08T10:51:56;53.35;;;13.18;;
3891;SDS011;1961;48.194;16.370;2022-12-08T10:54:27;50.20;;;12.30;;
3891;SDS011;1961;48.194;16.370;2022-12-08T10:56:54;53.65;;;13.30;;
3891;SDS011;1961;48.194;16.370;2022-12-08T10:59:21;50.08;;;11.98;;
3891;SDS011;1961;48.194;16.370;2022-12-08T11:01:50;51.28;;;13.02;;
3891;SDS011;1961;48.194;16.370;2022-12-08T11:04:20;52.25;;;13.40;;
3891;SDS011;1961;48.194;16.370;2022-12-08T11:06:47;52.70;;;13.68;;
3891;SDS011;1961;48.194;16.370;2022-12-08T11:14:14;53.05;;;14.23;;
3891;SDS011;1961;48.194;16.370;2022-12-08T11:16:41;51.97;;;13.07;;
3891;SDS011;1961;48.194;16.370;2022-12-08T11:19:11;53.60;;;13.90;;
3891;SDS011;1961;48.194;16.370;2022-12-08T11:21:39;55.17;;;14.98;;
3891;SDS011;1961;48.194;16.370;2022-12-08T11:24:26;52.80;;;13.15;;
3891;SDS011;1961;48.194;16.370;2022-12-08T11:26:53;51.75;;;13.40;;
3891;SDS011;1961;48.194;16.370;2022-12-08T11:29:20;53.88;;;13.90;;
3891;SDS011;1961;48.194;16.370;2022-12-08T11:31:47;53.90;;;14.35;;
3891;SDS011;1961;48.194;16.370;2022-12-08T11:34:18;54.85;;;13.32;;
3891;SDS011;1961;48.194;16.370;2022-12-08T11:36:45;53.00;;;13.35;;
3891;SDS011;1961;48.194;16.370;2022-12-08T11:39:11;53.70;;;13.00;;
3891;SDS011;1961;48.194;16.370;2022-12-08T11:41:38;54.83;;;13.75;;
3891;SDS011;1961;48.194;16.370;2022-12-08T11:49:17;55.92;;;13.43;;
3891;SDS011;1961;48.194;16.370;2022-12-08T11:52:01;55.90;;;15.60;;
3891;SDS011;1961;48.194;16.370;2022-12-08T11:54:34;56.38;;;14.38;;
3891;SDS011;1961;48.194;16.370;2022-12-08T11:57:02;54.30;;;14.85;;
3891;SDS011;1961;48.194;16.370;2022-12-08T12:02:03;54.08;;;13.85;;
3891;SDS011;1961;48.194;16.370;2022-12-08T12:04:31;57.83;;;15.80;;
3891;SDS011;1961;48.194;16.370;2022-12-08T12:15:06;56.40;;;16.70;;
3891;SDS011;1961;48.194;16.370;2022-12-08T12:22:59;59.35;;;15.55;;
3891;SDS011;1961;48.194;16.370;2022-12-08T12:25:28;58.53;;;15.50;;
3891;SDS011;1961;48.194;16.370;2022-12-08T12:27:56;55.55;;;14.88;;
3891;SDS011;1961;48.194;16.370;2022-12-08T12:30:27;56.00;;;14.93;;
3891;SDS011;1961;48.194;16.370;2022-12-08T12:32:57;55.53;;;15.10;;
3891;SDS011;1961;48.194;16.370;2022-12-08T12:35:34;57.08;;;15.10;;
3891;SDS011;1961;48.194;16.370;2022-12-08T12:38:02;55.47;;;15.27;;
3891;SDS011;1961;48.194;16.370;2022-12-08T12:40:49;54.63;;;15.20;;
3891;SDS011;1961;48.194;16.370;2022-12-08T12:43:32;58.30;;;16.13;;
3891;SDS011;1961;48.194;16.370;2022-12-08T12:48:43;54.80;;;14.23;;
3891;SDS011;1961;48.194;16.370;2022-12-08T12:54:21;54.67;;;15.63;;
3891;SDS011;1961;48.194;16.370;2022-12-08T12:56:48;55.67;;;15.35;;
3891;SDS011;1961;48.194;16.370;2022-12-08T13:02:26;57.95;;;17.45;;
3891;SDS011;1961;48.194;16.370;2022-12-08T13:07:32;54.78;;;15.55;;
3891;SDS011;1961;48.194;16.370;2022-12-08T13:12:34;55.10;;;15.35;;
3891;SDS011;1961;48.194;16.370;2022-12-08T13:15:01;60.22;;;17.20;;
3891;SDS011;1961;48.194;16.370;2022-12-08T13:17:34;57.15;;;16.67;;
3891;SDS011;1961;48.194;16.370;2022-12-08T13:20:03;56.03;;;15.73;;
3891;SDS011;1961;48.194;16.370;2022-12-08T13:22:56;55.88;;;16.20;;
3891;SDS011;1961;48.194;16.370;2022-12-08T13:25:44;58.97;;;17.05;;
3891;SDS011;1961;48.194;16.370;2022-12-08T13:28:17;57.65;;;16.90;;
3891;SDS011;1961;48.194;16.370;2022-12-08T13:30:45;56.97;;;16.42;;
3891;SDS011;1961;48.194;16.370;2022-12-08T13:33:30;58.92;;;16.83;;
3891;SDS011;1961;48.194;16.370;2022-12-08T13:38:38;62.42;;;18.15;;
3891;SDS011;1961;48.194;16.370;2022-12-08T13:41:17;60.60;;;17.60;;
3891;SDS011;1961;48.194;16.370;2022-12-08T13:43:57;60.58;;;18.00;;
3891;SDS011;1961;48.194;16.370;2022-12-08T13:46:36;61.95;;;17.38;;
3891;SDS011;1961;48.194;16.370;2022-12-08T13:49:04;58.80;;;17.10;;
3891;SDS011;1961;48.194;16.370;2022-12-08T13:51:36;63.40;;;20.10;;
3891;SDS011;1961;48.194;16.370;2022-12-08T13:54:11;58.15;;;18.55;;
3891;SDS011;1961;48.194;16.370;2022-12-08T13:56:40;60.83;;;18.52;;
3891;SDS011;1961;48.194;16.370;2022-12-08T13:59:09;61.08;;;17.45;;
3891;SDS011;1961;48.194;16.370;2022-12-08T14:01:39;58.45;;;17.98;;
3891;SDS011;1961;48.194;16.370;2022-12-08T14:04:42;63.88;;;19.08;;
3891;SDS011;1961;48.194;16.370;2022-12-08T14:07:00;61.78;;;18.80;;
3891;SDS011;1961;48.194;16.370;2022-12-08T14:09:31;58.85;;;17.88;;
3891;SDS011;1961;48.194;16.370;2022-12-08T14:11:59;59.13;;;19.17;;
3891;SDS011;1961;48.194;16.370;2022-12-08T14:14:40;56.90;;;17.50;;
3891;SDS011;1961;48.194;16.370;2022-12-08T14:17:11;62.63;;;18.58;;
3891;SDS011;1961;48.194;16.370;2022-12-08T14:19:37;68.65;;;20.70;;
3891;SDS011;1961;48.194;16.370;2022-12-08T14:24:32;58.85;;;17.33;;
3891;SDS011;1961;48.194;16.370;2022-12-08T14:27:03;62.20;;;17.90;;
3891;SDS011;1961;48.194;16.370;2022-12-08T14:29:37;57.80;;;17.35;;
3891;SDS011;1961;48.194;16.370;2022-12-08T14:34:52;63.75;;;17.20;;
3891;SDS011;1961;48.194;16.370;2022-12-08T14:37:19;58.72;;;17.42;;
3891;SDS011;1961;48.194;16.370;2022-12-08T14:39:45;61.42;;;17.30;;
3891;SDS011;1961;48.194;16.370;2022-12-08T14:42:19;59.53;;;17.63;;
3891;SDS011;1961;48.194;16.370;2022-12-08T14:44:46;60.95;;;17.67;;
3891;SDS011;1961;48.194;16.370;2022-12-08T14:47:16;62.72;;;19.23;;
3891;SDS011;1961;48.194;16.370;2022-12-08T14:49:43;59.20;;;17.65;;
3891;SDS011;1961;48.194;16.370;2022-12-08T14:52:11;62.13;;;19.33;;
3891;SDS011;1961;48.194;16.370;2022-12-08T14:54:38;58.88;;;18.55;;
3891;SDS011;1961;48.194;16.370;2022-12-08T14:57:08;63.60;;;21.50;;
3891;SDS011;1961;48.194;16.370;2022-12-08T14:59:36;63.33;;;20.08;;
3891;SDS011;1961;48.194;16.370;2022-12-08T15:04:39;62.00;;;19.50;;
3891;SDS011;1961;48.194;16.370;2022-12-08T15:09:40;61.80;;;17.95;;
3891;SDS011;1961;48.194;16.370;2022-12-08T15:12:18;58.28;;;18.63;;
3891;SDS011;1961;48.194;16.370;2022-12-08T15:14:55;61.38;;;18.30;;
3891;SDS011;1961;48.194;16.370;2022-12-08T15:17:29;65.50;;;18.70;;
3891;SDS011;1961;48.194;16.370;2022-12-08T15:19:57;59.22;;;17.98;;
3891;SDS011;1961;48.194;16.370;2022-12-08T15:22:23;58.55;;;17.88;;
3891;SDS011;1961;48.194;16.370;2022-12-08T15:24:50;61.60;;;18.92;;
3891;SDS011;1961;48.194;16.370;2022-12-08T15:27:17;64.85;;;20.10;;
3891;SDS011;1961;48.194;16.370;2022-12-08T15:29:45;64.13;;;19.95;;
3891;SDS011;1961;48.194;16.370;2022-12-08T15:32:11;64.03;;;20.73;;
3891;SDS011;1961;48.194;16.370;2022-12-08T15:34:37;65.90;;;20.92;;
3891;SDS011;1961;48.194;16.370;2022-12-08T15:37:04;67.10;;;19.80;;
3891;SDS011;1961;48.194;16.370;2022-12-08T15:39:38;65.30;;;19.23;;
3891;SDS011;1961;48.194;16.370;2022-12-08T15:42:07;65.93;;;19.58;;
3891;SDS011;1961;48.194;16.370;2022-12-08T15:44:35;61.38;;;19.23;;
3891;SDS011;1961;48.194;16.370;2022-12-08T15:47:01;65.13;;;19.52;;
3891;SDS011;1961;48.194;16.370;2022-12-08T15:49:27;65.18;;;21.77;;
3891;SDS011;1961;48.194;16.370;2022-12-08T15:51:53;61.83;;;19.40;;
3891;SDS011;1961;48.194;16.370;2022-12-08T15:54:20;63.13;;;20.70;;
3891;SDS011;1961;48.194;16.370;2022-12-08T15:56:47;64.28;;;20.20;;
3891;SDS011;1961;48.194;16.370;2022-12-08T15:59:18;62.35;;;19.40;;
3891;SDS011;1961;48.194;16.370;2022-12-08T16:01:44;59.95;;;19.05;;
3891;SDS011;1961;48.194;16.370;2022-12-08T16:04:12;65.25;;;21.63;;
3891;SDS011;1961;48.194;16.370;2022-12-08T16:06:39;61.33;;;18.83;;
3891;SDS011;1961;48.194;16.370;2022-12-08T16:09:05;96.10;;;38.85;;
3891;SDS011;1961;48.194;16.370;2022-12-08T16:11:32;62.35;;;20.33;;
3891;SDS011;1961;48.194;16.370;2022-12-08T16:14:16;65.53;;;19.58;;
3891;SDS011;1961;48.194;16.370;2022-12-08T16:16:42;64.22;;;21.08;;
3891;SDS011;1961;48.194;16.370;2022-12-08T16:19:12;64.10;;;20.40;;
3891;SDS011;1961;48.194;16.370;2022-12-08T16:21:39;64.75;;;19.38;;
3891;SDS011;1961;48.194;16.370;2022-12-08T16:24:05;63.50;;;21.48;;
3891;SDS011;1961;48.194;16.370;2022-12-08T16:26:32;64.70;;;19.98;;